sensor_id;sensor_type;location;lat;lon;timestamp;P1;durP1;ratioP1;P2;durP2;ratioP2
6197;SDS011;3132;42.622;23.328;2023-07-20T00:02:19;9.55;;;7.95;;
6197;SDS011;3132;42.622;23.328;2023-07-20T00:04:44;11.48;;;8.88;;
6197;SDS011;3132;42.622;23.328;2023-07-20T00:07:09;9.65;;;8.55;;
6197;SDS011;3132;42.622;23.328;2023-07-20T00:09:35;14.32;;;8.00;;
6197;SDS011;3132;42.622;23.328;2023-07-20T00:12:00;7.93;;;7.30;;
6197;SDS011;3132;42.622;23.328;2023-07-20T00:14:26;10.70;;;8.27;;
6197;SDS011;3132;42.622;23.328;2023-07-20T00:16:51;11.00;;;7.90;;
6197;SDS011;3132;42.622;23.328;2023-07-20T00:19:24;8.63;;;7.65;;
6197;SDS011;3132;42.622;23.328;2023-07-20T00:21:50;10.00;;;8.98;;
6197;SDS011;3132;42.622;23.328;2023-07-20T00:24:16;12.38;;;9.88;;
6197;SDS011;3132;42.622;23.328;2023-07-20T00:26:41;9.95;;;8.07;;
6197;SDS011;3132;42.622;23.328;2023-07-20T00:29:07;10.77;;;8.75;;
6197;SDS011;3132;42.622;23.328;2023-07-20T00:31:32;11.00;;;8.75;;
6197;SDS011;3132;42.622;23.328;2023-07-20T00:34:00;9.90;;;8.90;;
6197;SDS011;3132;42.622;23.328;2023-07-20T00:36:25;12.00;;;8.82;;
6197;SDS011;3132;42.622;23.328;2023-07-20T00:38:51;9.38;;;8.70;;
6197;SDS011;3132;42.622;23.328;2023-07-20T00:41:16;13.18;;;8.63;;
6197;SDS011;3132;42.622;23.328;2023-07-20T00:43:42;10.98;;;9.23;;
6197;SDS011;3132;42.622;23.328;2023-07-20T00:46:08;10.25;;;8.45;;
6197;SDS011;3132;42.622;23.328;2023-07-20T00:48:34;9.25;;;8.40;;
6197;SDS011;3132;42.622;23.328;2023-07-20T00:51:00;9.32;;;8.25;;
6197;SDS011;3132;42.622;23.328;2023-07-20T00:53:27;9.30;;;8.48;;
6197;SDS011;3132;42.622;23.328;2023-07-20T00:55:52;9.43;;;8.55;;
6197;SDS011;3132;42.622;23.328;2023-07-20T00:58:18;14.13;;;9.02;;
6197;SDS011;3132;42.622;23.328;2023-07-20T01:00:44;11.07;;;9.95;;
6197;SDS011;3132;42.622;23.328;2023-07-20T01:03:09;9.00;;;8.07;;
6197;SDS011;3132;42.622;23.328;2023-07-20T01:05:42;9.73;;;8.75;;
6197;SDS011;3132;42.622;23.328;2023-07-20T01:10:57;11.30;;;8.27;;
6197;SDS011;3132;42.622;23.328;2023-07-20T01:13:27;8.75;;;7.90;;
6197;SDS011;3132;42.622;23.328;2023-07-20T01:15:57;9.88;;;9.07;;
6197;SDS011;3132;42.622;23.328;2023-07-20T01:18:26;14.90;;;8.50;;
6197;SDS011;3132;42.622;23.328;2023-07-20T01:20:51;9.98;;;9.15;;
6197;SDS011;3132;42.622;23.328;2023-07-20T01:31:54;11.57;;;7.68;;
6197;SDS011;3132;42.622;23.328;2023-07-20T01:34:20;9.15;;;8.32;;
6197;SDS011;3132;42.622;23.328;2023-07-20T01:36:48;10.27;;;9.02;;
6197;SDS011;3132;42.622;23.328;2023-07-20T01:39:17;11.13;;;9.57;;
6197;SDS011;3132;42.622;23.328;2023-07-20T01:41:44;10.93;;;9.65;;
6197;SDS011;3132;42.622;23.328;2023-07-20T01:44:10;10.68;;;9.20;;
6197;SDS011;3132;42.622;23.328;2023-07-20T01:46:37;11.43;;;9.48;;
6197;SDS011;3132;42.622;23.328;2023-07-20T01:49:03;10.38;;;9.48;;
6197;SDS011;3132;42.622;23.328;2023-07-20T01:51:28;9.68;;;8.88;;
6197;SDS011;3132;42.622;23.328;2023-07-20T01:53:53;9.80;;;8.80;;
6197;SDS011;3132;42.622;23.328;2023-07-20T01:56:19;11.02;;;10.02;;
6197;SDS011;3132;42.622;23.328;2023-07-20T01:58:45;10.50;;;9.60;;
6197;SDS011;3132;42.622;23.328;2023-07-20T02:01:10;12.70;;;9.80;;
6197;SDS011;3132;42.622;23.328;2023-07-20T02:03:36;9.52;;;8.60;;
6197;SDS011;3132;42.622;23.328;2023-07-20T02:06:01;9.90;;;9.10;;
6197;SDS011;3132;42.622;23.328;2023-07-20T02:08:27;9.55;;;8.63;;
6197;SDS011;3132;42.622;23.328;2023-07-20T02:10:52;10.80;;;9.80;;
6197;SDS011;3132;42.622;23.328;2023-07-20T02:13:17;9.82;;;8.82;;
6197;SDS011;3132;42.622;23.328;2023-07-20T02:15:43;10.27;;;9.32;;
6197;SDS011;3132;42.622;23.328;2023-07-20T02:18:08;9.05;;;8.23;;
6197;SDS011;3132;42.622;23.328;2023-07-20T02:20:34;10.90;;;9.63;;
6197;SDS011;3132;42.622;23.328;2023-07-20T02:23:00;9.60;;;8.52;;
6197;SDS011;3132;42.622;23.328;2023-07-20T02:25:26;10.60;;;9.15;;
6197;SDS011;3132;42.622;23.328;2023-07-20T02:27:51;9.77;;;8.80;;
6197;SDS011;3132;42.622;23.328;2023-07-20T02:30:17;12.07;;;9.48;;
6197;SDS011;3132;42.622;23.328;2023-07-20T02:32:43;14.98;;;9.27;;
6197;SDS011;3132;42.622;23.328;2023-07-20T02:35:11;14.32;;;9.52;;
6197;SDS011;3132;42.622;23.328;2023-07-20T02:37:36;10.52;;;9.52;;
6197;SDS011;3132;42.622;23.328;2023-07-20T02:40:02;14.65;;;10.55;;
6197;SDS011;3132;42.622;23.328;2023-07-20T02:42:29;13.65;;;9.98;;
6197;SDS011;3132;42.622;23.328;2023-07-20T02:44:55;12.05;;;10.27;;
6197;SDS011;3132;42.622;23.328;2023-07-20T02:47:20;12.38;;;9.70;;
6197;SDS011;3132;42.622;23.328;2023-07-20T02:49:45;9.70;;;9.00;;
6197;SDS011;3132;42.622;23.328;2023-07-20T02:52:11;16.98;;;9.95;;
6197;SDS011;3132;42.622;23.328;2023-07-20T02:54:36;10.67;;;9.60;;
6197;SDS011;3132;42.622;23.328;2023-07-20T02:57:01;10.77;;;9.20;;
6197;SDS011;3132;42.622;23.328;2023-07-20T02:59:27;10.63;;;9.50;;
6197;SDS011;3132;42.622;23.328;2023-07-20T03:01:52;9.75;;;8.85;;
6197;SDS011;3132;42.622;23.328;2023-07-20T03:04:19;10.43;;;9.35;;
6197;SDS011;3132;42.622;23.328;2023-07-20T03:06:44;9.52;;;8.82;;
6197;SDS011;3132;42.622;23.328;2023-07-20T03:09:10;14.02;;;9.18;;
6197;SDS011;3132;42.622;23.328;2023-07-20T03:11:35;9.37;;;8.40;;
6197;SDS011;3132;42.622;23.328;2023-07-20T03:14:01;13.23;;;8.63;;
6197;SDS011;3132;42.622;23.328;2023-07-20T03:16:26;13.98;;;9.18;;
6197;SDS011;3132;42.622;23.328;2023-07-20T03:18:52;12.98;;;9.00;;
6197;SDS011;3132;42.622;23.328;2023-07-20T03:21:18;12.27;;;9.45;;
6197;SDS011;3132;42.622;23.328;2023-07-20T03:23:43;16.23;;;9.63;;
6197;SDS011;3132;42.622;23.328;2023-07-20T03:26:09;13.30;;;8.93;;
6197;SDS011;3132;42.622;23.328;2023-07-20T03:28:35;13.60;;;9.30;;
6197;SDS011;3132;42.622;23.328;2023-07-20T03:31:00;12.07;;;8.98;;
6197;SDS011;3132;42.622;23.328;2023-07-20T03:33:27;11.73;;;8.65;;
6197;SDS011;3132;42.622;23.328;2023-07-20T03:35:53;12.23;;;8.57;;
6197;SDS011;3132;42.622;23.328;2023-07-20T03:38:19;13.13;;;9.20;;
6197;SDS011;3132;42.622;23.328;2023-07-20T03:43:17;29.55;;;11.63;;
6197;SDS011;3132;42.622;23.328;2023-07-20T03:45:42;23.42;;;10.77;;
6197;SDS011;3132;42.622;23.328;2023-07-20T03:48:08;10.45;;;9.05;;
6197;SDS011;3132;42.622;23.328;2023-07-20T03:50:34;9.50;;;8.43;;
6197;SDS011;3132;42.622;23.328;2023-07-20T03:52:59;12.80;;;9.35;;
6197;SDS011;3132;42.622;23.328;2023-07-20T03:55:25;12.00;;;8.52;;
6197;SDS011;3132;42.622;23.328;2023-07-20T03:57:50;9.95;;;9.02;;
6197;SDS011;3132;42.622;23.328;2023-07-20T04:00:16;9.82;;;8.75;;
6197;SDS011;3132;42.622;23.328;2023-07-20T04:02:42;10.50;;;9.35;;
6197;SDS011;3132;42.622;23.328;2023-07-20T04:05:07;11.52;;;9.25;;
6197;SDS011;3132;42.622;23.328;2023-07-20T04:07:33;13.93;;;9.05;;
6197;SDS011;3132;42.622;23.328;2023-07-20T04:09:58;9.43;;;8.27;;
6197;SDS011;3132;42.622;23.328;2023-07-20T04:12:24;16.52;;;10.02;;
6197;SDS011;3132;42.622;23.328;2023-07-20T04:14:49;9.10;;;8.15;;
6197;SDS011;3132;42.622;23.328;2023-07-20T04:17:14;10.52;;;8.43;;
6197;SDS011;3132;42.622;23.328;2023-07-20T04:19:40;9.65;;;8.75;;
6197;SDS011;3132;42.622;23.328;2023-07-20T04:22:05;11.25;;;9.32;;
6197;SDS011;3132;42.622;23.328;2023-07-20T04:24:30;11.10;;;10.10;;
6197;SDS011;3132;42.622;23.328;2023-07-20T04:26:56;11.65;;;10.55;;
6197;SDS011;3132;42.622;23.328;2023-07-20T04:29:21;10.35;;;9.35;;
6197;SDS011;3132;42.622;23.328;2023-07-20T04:31:47;12.13;;;8.95;;
6197;SDS011;3132;42.622;23.328;2023-07-20T04:34:12;17.38;;;9.80;;
6197;SDS011;3132;42.622;23.328;2023-07-20T04:36:38;10.38;;;8.93;;
6197;SDS011;3132;42.622;23.328;2023-07-20T04:39:03;9.18;;;8.38;;
6197;SDS011;3132;42.622;23.328;2023-07-20T04:41:30;10.02;;;8.77;;
6197;SDS011;3132;42.622;23.328;2023-07-20T04:43:55;10.38;;;9.10;;
6197;SDS011;3132;42.622;23.328;2023-07-20T04:46:21;9.30;;;8.40;;
6197;SDS011;3132;42.622;23.328;2023-07-20T04:48:46;12.05;;;8.95;;
6197;SDS011;3132;42.622;23.328;2023-07-20T04:51:13;9.05;;;8.35;;
6197;SDS011;3132;42.622;23.328;2023-07-20T04:53:38;10.90;;;9.80;;
6197;SDS011;3132;42.622;23.328;2023-07-20T04:56:04;10.90;;;8.65;;
6197;SDS011;3132;42.622;23.328;2023-07-20T04:58:29;9.50;;;8.60;;
6197;SDS011;3132;42.622;23.328;2023-07-20T05:00:55;10.43;;;8.93;;
6197;SDS011;3132;42.622;23.328;2023-07-20T05:03:20;12.20;;;8.85;;
6197;SDS011;3132;42.622;23.328;2023-07-20T05:05:49;10.20;;;9.10;;
6197;SDS011;3132;42.622;23.328;2023-07-20T05:08:14;10.55;;;9.18;;
6197;SDS011;3132;42.622;23.328;2023-07-20T05:10:39;10.32;;;9.05;;
6197;SDS011;3132;42.622;23.328;2023-07-20T05:13:05;14.43;;;9.60;;
6197;SDS011;3132;42.622;23.328;2023-07-20T05:15:32;14.35;;;9.23;;
6197;SDS011;3132;42.622;23.328;2023-07-20T05:17:58;10.38;;;9.20;;
6197;SDS011;3132;42.622;23.328;2023-07-20T05:20:23;9.57;;;8.65;;
6197;SDS011;3132;42.622;23.328;2023-07-20T05:22:49;10.25;;;9.35;;
6197;SDS011;3132;42.622;23.328;2023-07-20T05:25:14;11.65;;;9.70;;
6197;SDS011;3132;42.622;23.328;2023-07-20T05:27:43;11.80;;;9.70;;
6197;SDS011;3132;42.622;23.328;2023-07-20T05:30:08;11.27;;;9.88;;
6197;SDS011;3132;42.622;23.328;2023-07-20T05:32:34;15.10;;;9.18;;
6197;SDS011;3132;42.622;23.328;2023-07-20T05:35:00;10.40;;;8.52;;
6197;SDS011;3132;42.622;23.328;2023-07-20T05:37:25;12.63;;;8.68;;
6197;SDS011;3132;42.622;23.328;2023-07-20T05:39:51;10.35;;;9.05;;
6197;SDS011;3132;42.622;23.328;2023-07-20T05:42:16;10.10;;;8.32;;
6197;SDS011;3132;42.622;23.328;2023-07-20T05:44:42;12.55;;;8.25;;
6197;SDS011;3132;42.622;23.328;2023-07-20T05:47:07;10.13;;;9.05;;
6197;SDS011;3132;42.622;23.328;2023-07-20T05:49:34;15.73;;;8.18;;
6197;SDS011;3132;42.622;23.328;2023-07-20T05:51:59;9.00;;;7.90;;
6197;SDS011;3132;42.622;23.328;2023-07-20T05:54:26;9.60;;;8.63;;
6197;SDS011;3132;42.622;23.328;2023-07-20T05:56:52;10.10;;;8.05;;
6197;SDS011;3132;42.622;23.328;2023-07-20T05:59:18;9.43;;;8.50;;
6197;SDS011;3132;42.622;23.328;2023-07-20T06:01:44;9.30;;;8.30;;
6197;SDS011;3132;42.622;23.328;2023-07-20T06:04:10;12.25;;;7.35;;
6197;SDS011;3132;42.622;23.328;2023-07-20T06:06:35;9.02;;;7.57;;
6197;SDS011;3132;42.622;23.328;2023-07-20T06:09:01;11.85;;;7.07;;
6197;SDS011;3132;42.622;23.328;2023-07-20T06:11:32;12.45;;;7.55;;
6197;SDS011;3132;42.622;23.328;2023-07-20T06:13:58;13.80;;;8.27;;
6197;SDS011;3132;42.622;23.328;2023-07-20T06:16:24;12.63;;;7.88;;
6197;SDS011;3132;42.622;23.328;2023-07-20T06:18:49;9.82;;;7.40;;
6197;SDS011;3132;42.622;23.328;2023-07-20T06:21:15;7.82;;;6.80;;
6197;SDS011;3132;42.622;23.328;2023-07-20T06:23:40;10.07;;;7.68;;
6197;SDS011;3132;42.622;23.328;2023-07-20T06:26:06;12.27;;;7.97;;
6197;SDS011;3132;42.622;23.328;2023-07-20T06:28:32;7.70;;;6.75;;
6197;SDS011;3132;42.622;23.328;2023-07-20T06:31:00;10.30;;;6.43;;
6197;SDS011;3132;42.622;23.328;2023-07-20T06:33:26;10.00;;;6.78;;
6197;SDS011;3132;42.622;23.328;2023-07-20T06:35:52;12.73;;;7.28;;
6197;SDS011;3132;42.622;23.328;2023-07-20T06:38:18;15.45;;;10.35;;
6197;SDS011;3132;42.622;23.328;2023-07-20T06:40:45;10.93;;;7.97;;
6197;SDS011;3132;42.622;23.328;2023-07-20T06:43:11;12.02;;;7.28;;
6197;SDS011;3132;42.622;23.328;2023-07-20T06:45:37;10.38;;;6.57;;
6197;SDS011;3132;42.622;23.328;2023-07-20T06:48:02;11.32;;;7.60;;
6197;SDS011;3132;42.622;23.328;2023-07-20T06:50:28;8.65;;;7.10;;
6197;SDS011;3132;42.622;23.328;2023-07-20T06:52:53;14.70;;;8.55;;
6197;SDS011;3132;42.622;23.328;2023-07-20T06:55:19;9.27;;;7.03;;
6197;SDS011;3132;42.622;23.328;2023-07-20T06:57:44;12.27;;;8.05;;
6197;SDS011;3132;42.622;23.328;2023-07-20T07:00:10;11.70;;;7.75;;
6197;SDS011;3132;42.622;23.328;2023-07-20T07:02:36;13.07;;;8.70;;
6197;SDS011;3132;42.622;23.328;2023-07-20T07:05:01;12.10;;;9.38;;
6197;SDS011;3132;42.622;23.328;2023-07-20T07:07:27;14.15;;;9.32;;
6197;SDS011;3132;42.622;23.328;2023-07-20T07:09:52;13.90;;;8.57;;
6197;SDS011;3132;42.622;23.328;2023-07-20T07:12:19;17.23;;;9.10;;
6197;SDS011;3132;42.622;23.328;2023-07-20T07:14:44;12.98;;;8.63;;
6197;SDS011;3132;42.622;23.328;2023-07-20T07:17:10;12.93;;;8.68;;
6197;SDS011;3132;42.622;23.328;2023-07-20T07:19:35;14.95;;;8.45;;
6197;SDS011;3132;42.622;23.328;2023-07-20T07:22:01;8.85;;;7.78;;
6197;SDS011;3132;42.622;23.328;2023-07-20T07:24:27;11.98;;;8.50;;
6197;SDS011;3132;42.622;23.328;2023-07-20T07:26:58;9.98;;;8.30;;
6197;SDS011;3132;42.622;23.328;2023-07-20T07:29:24;9.00;;;8.07;;
6197;SDS011;3132;42.622;23.328;2023-07-20T07:31:49;10.32;;;8.35;;
6197;SDS011;3132;42.622;23.328;2023-07-20T07:34:14;11.30;;;9.02;;
6197;SDS011;3132;42.622;23.328;2023-07-20T07:36:40;10.93;;;9.82;;
6197;SDS011;3132;42.622;23.328;2023-07-20T07:39:05;13.98;;;8.98;;
6197;SDS011;3132;42.622;23.328;2023-07-20T07:41:31;12.43;;;9.05;;
6197;SDS011;3132;42.622;23.328;2023-07-20T07:43:56;12.70;;;9.13;;
6197;SDS011;3132;42.622;23.328;2023-07-20T07:46:21;12.20;;;10.43;;
6197;SDS011;3132;42.622;23.328;2023-07-20T07:48:47;16.17;;;10.07;;
6197;SDS011;3132;42.622;23.328;2023-07-20T07:51:12;17.52;;;10.55;;
6197;SDS011;3132;42.622;23.328;2023-07-20T07:53:39;20.25;;;10.38;;
6197;SDS011;3132;42.622;23.328;2023-07-20T07:56:06;14.48;;;10.20;;
6197;SDS011;3132;42.622;23.328;2023-07-20T07:58:32;17.55;;;11.25;;
6197;SDS011;3132;42.622;23.328;2023-07-20T08:00:58;13.45;;;10.35;;
6197;SDS011;3132;42.622;23.328;2023-07-20T08:03:23;13.82;;;10.48;;
6197;SDS011;3132;42.622;23.328;2023-07-20T08:05:49;19.75;;;12.60;;
6197;SDS011;3132;42.622;23.328;2023-07-20T08:08:15;19.55;;;11.23;;
6197;SDS011;3132;42.622;23.328;2023-07-20T08:10:40;14.20;;;11.73;;
6197;SDS011;3132;42.622;23.328;2023-07-20T08:13:05;14.20;;;12.32;;
6197;SDS011;3132;42.622;23.328;2023-07-20T08:15:31;15.40;;;10.95;;
6197;SDS011;3132;42.622;23.328;2023-07-20T08:17:56;18.70;;;11.18;;
6197;SDS011;3132;42.622;23.328;2023-07-20T08:20:22;15.07;;;10.43;;
6197;SDS011;3132;42.622;23.328;2023-07-20T08:22:51;13.15;;;9.40;;
6197;SDS011;3132;42.622;23.328;2023-07-20T08:25:19;12.13;;;9.50;;
6197;SDS011;3132;42.622;23.328;2023-07-20T08:27:45;14.18;;;10.77;;
6197;SDS011;3132;42.622;23.328;2023-07-20T08:30:12;11.20;;;10.00;;
6197;SDS011;3132;42.622;23.328;2023-07-20T08:32:38;9.88;;;8.82;;
6197;SDS011;3132;42.622;23.328;2023-07-20T08:35:03;11.75;;;8.13;;
6197;SDS011;3132;42.622;23.328;2023-07-20T08:37:29;10.10;;;9.10;;
6197;SDS011;3132;42.622;23.328;2023-07-20T08:39:54;9.70;;;8.77;;
6197;SDS011;3132;42.622;23.328;2023-07-20T08:42:19;11.35;;;9.63;;
6197;SDS011;3132;42.622;23.328;2023-07-20T08:44:47;13.00;;;10.55;;
6197;SDS011;3132;42.622;23.328;2023-07-20T08:47:15;11.55;;;9.98;;
6197;SDS011;3132;42.622;23.328;2023-07-20T08:49:41;11.30;;;10.10;;
6197;SDS011;3132;42.622;23.328;2023-07-20T08:52:07;11.90;;;9.73;;
6197;SDS011;3132;42.622;23.328;2023-07-20T08:54:34;9.25;;;8.25;;
6197;SDS011;3132;42.622;23.328;2023-07-20T08:57:04;10.60;;;9.35;;
6197;SDS011;3132;42.622;23.328;2023-07-20T08:59:31;10.68;;;9.68;;
6197;SDS011;3132;42.622;23.328;2023-07-20T09:01:57;14.30;;;10.10;;
6197;SDS011;3132;42.622;23.328;2023-07-20T09:04:23;13.40;;;10.00;;
6197;SDS011;3132;42.622;23.328;2023-07-20T09:06:49;10.50;;;9.60;;
6197;SDS011;3132;42.622;23.328;2023-07-20T09:09:15;12.57;;;11.45;;
6197;SDS011;3132;42.622;23.328;2023-07-20T09:11:41;15.52;;;10.75;;
6197;SDS011;3132;42.622;23.328;2023-07-20T09:14:08;11.50;;;10.30;;
6197;SDS011;3132;42.622;23.328;2023-07-20T09:16:55;16.25;;;9.40;;
6197;SDS011;3132;42.622;23.328;2023-07-20T09:19:21;11.30;;;10.20;;
6197;SDS011;3132;42.622;23.328;2023-07-20T09:21:50;10.63;;;9.73;;
6197;SDS011;3132;42.622;23.328;2023-07-20T09:24:17;10.02;;;9.15;;
6197;SDS011;3132;42.622;23.328;2023-07-20T09:26:44;18.63;;;9.88;;
6197;SDS011;3132;42.622;23.328;2023-07-20T09:29:13;11.18;;;9.80;;
6197;SDS011;3132;42.622;23.328;2023-07-20T09:31:39;11.30;;;9.73;;
6197;SDS011;3132;42.622;23.328;2023-07-20T09:34:08;10.02;;;9.10;;
6197;SDS011;3132;42.622;23.328;2023-07-20T09:36:34;9.63;;;8.63;;
6197;SDS011;3132;42.622;23.328;2023-07-20T09:39:00;9.75;;;8.38;;
6197;SDS011;3132;42.622;23.328;2023-07-20T09:41:27;8.18;;;7.43;;
6197;SDS011;3132;42.622;23.328;2023-07-20T09:43:53;8.40;;;7.68;;
6197;SDS011;3132;42.622;23.328;2023-07-20T09:46:19;9.52;;;8.60;;
6197;SDS011;3132;42.622;23.328;2023-07-20T09:48:54;13.05;;;8.05;;
6197;SDS011;3132;42.622;23.328;2023-07-20T09:51:23;9.38;;;7.60;;
6197;SDS011;3132;42.622;23.328;2023-07-20T09:53:49;9.70;;;7.28;;
6197;SDS011;3132;42.622;23.328;2023-07-20T09:56:18;12.70;;;7.60;;
6197;SDS011;3132;42.622;23.328;2023-07-20T09:58:46;8.07;;;7.35;;
6197;SDS011;3132;42.622;23.328;2023-07-20T10:01:13;10.90;;;7.60;;
6197;SDS011;3132;42.622;23.328;2023-07-20T10:03:45;7.93;;;7.32;;
6197;SDS011;3132;42.622;23.328;2023-07-20T10:06:12;9.70;;;7.72;;
6197;SDS011;3132;42.622;23.328;2023-07-20T10:08:43;8.68;;;7.70;;
6197;SDS011;3132;42.622;23.328;2023-07-20T10:11:12;8.48;;;7.57;;
6197;SDS011;3132;42.622;23.328;2023-07-20T10:13:40;10.48;;;7.28;;
6197;SDS011;3132;42.622;23.328;2023-07-20T10:16:12;9.77;;;8.25;;
6197;SDS011;3132;42.622;23.328;2023-07-20T10:19:21;13.38;;;7.47;;
6197;SDS011;3132;42.622;23.328;2023-07-20T10:21:51;8.02;;;7.32;;
6197;SDS011;3132;42.622;23.328;2023-07-20T10:24:32;8.55;;;7.85;;
6197;SDS011;3132;42.622;23.328;2023-07-20T10:27:00;8.45;;;7.68;;
6197;SDS011;3132;42.622;23.328;2023-07-20T10:29:26;10.23;;;6.85;;
6197;SDS011;3132;42.622;23.328;2023-07-20T10:31:52;9.88;;;7.82;;
6197;SDS011;3132;42.622;23.328;2023-07-20T10:34:20;8.68;;;7.47;;
6197;SDS011;3132;42.622;23.328;2023-07-20T10:36:46;11.13;;;7.55;;
6197;SDS011;3132;42.622;23.328;2023-07-20T10:41:50;9.50;;;7.38;;
6197;SDS011;3132;42.622;23.328;2023-07-20T10:44:18;7.90;;;7.30;;
6197;SDS011;3132;42.622;23.328;2023-07-20T10:46:45;9.55;;;8.57;;
6197;SDS011;3132;42.622;23.328;2023-07-20T10:49:12;12.77;;;7.20;;
6197;SDS011;3132;42.622;23.328;2023-07-20T10:54:54;8.82;;;8.02;;
6197;SDS011;3132;42.622;23.328;2023-07-20T10:56:55;10.90;;;7.55;;
6197;SDS011;3132;42.622;23.328;2023-07-20T10:59:40;7.65;;;7.05;;
6197;SDS011;3132;42.622;23.328;2023-07-20T11:02:09;10.00;;;8.77;;
6197;SDS011;3132;42.622;23.328;2023-07-20T11:07:02;9.10;;;7.45;;
6197;SDS011;3132;42.622;23.328;2023-07-20T11:09:33;7.88;;;7.28;;
6197;SDS011;3132;42.622;23.328;2023-07-20T11:12:11;8.82;;;7.88;;
6197;SDS011;3132;42.622;23.328;2023-07-20T11:14:42;8.65;;;7.80;;
6197;SDS011;3132;42.622;23.328;2023-07-20T11:17:21;10.25;;;8.27;;
6197;SDS011;3132;42.622;23.328;2023-07-20T11:19:58;11.65;;;8.00;;
6197;SDS011;3132;42.622;23.328;2023-07-20T11:22:26;9.20;;;8.25;;
6197;SDS011;3132;42.622;23.328;2023-07-20T11:24:54;8.98;;;7.45;;
6197;SDS011;3132;42.622;23.328;2023-07-20T11:27:20;10.32;;;7.25;;
6197;SDS011;3132;42.622;23.328;2023-07-20T11:29:47;13.00;;;8.23;;
6197;SDS011;3132;42.622;23.328;2023-07-20T11:32:19;10.05;;;8.77;;
6197;SDS011;3132;42.622;23.328;2023-07-20T11:34:46;12.55;;;9.05;;
6197;SDS011;3132;42.622;23.328;2023-07-20T11:37:12;9.73;;;8.75;;
6197;SDS011;3132;42.622;23.328;2023-07-20T11:39:38;11.65;;;8.63;;
6197;SDS011;3132;42.622;23.328;2023-07-20T11:42:03;8.63;;;7.75;;
6197;SDS011;3132;42.622;23.328;2023-07-20T11:44:30;9.85;;;8.02;;
6197;SDS011;3132;42.622;23.328;2023-07-20T11:47:03;9.60;;;8.57;;
6197;SDS011;3132;42.622;23.328;2023-07-20T11:49:36;11.88;;;9.85;;
6197;SDS011;3132;42.622;23.328;2023-07-20T11:52:03;11.93;;;10.23;;
6197;SDS011;3132;42.622;23.328;2023-07-20T11:54:30;11.00;;;9.90;;
6197;SDS011;3132;42.622;23.328;2023-07-20T11:56:56;12.43;;;10.07;;
6197;SDS011;3132;42.622;23.328;2023-07-20T11:59:22;10.98;;;9.88;;
6197;SDS011;3132;42.622;23.328;2023-07-20T12:01:47;11.13;;;9.48;;
6197;SDS011;3132;42.622;23.328;2023-07-20T12:04:12;15.13;;;10.48;;
6197;SDS011;3132;42.622;23.328;2023-07-20T12:06:38;13.30;;;10.35;;
6197;SDS011;3132;42.622;23.328;2023-07-20T12:09:03;10.90;;;9.25;;
6197;SDS011;3132;42.622;23.328;2023-07-20T12:11:35;11.10;;;9.35;;
6197;SDS011;3132;42.622;23.328;2023-07-20T12:14:02;10.40;;;9.45;;
6197;SDS011;3132;42.622;23.328;2023-07-20T12:16:29;12.80;;;9.95;;
6197;SDS011;3132;42.622;23.328;2023-07-20T12:19:13;16.15;;;10.43;;
6197;SDS011;3132;42.622;23.328;2023-07-20T12:21:39;12.45;;;9.93;;
6197;SDS011;3132;42.622;23.328;2023-07-20T12:24:07;10.43;;;9.52;;
6197;SDS011;3132;42.622;23.328;2023-07-20T12:26:34;9.65;;;8.70;;
6197;SDS011;3132;42.622;23.328;2023-07-20T12:29:00;8.68;;;7.90;;
6197;SDS011;3132;42.622;23.328;2023-07-20T12:31:26;11.48;;;9.02;;
6197;SDS011;3132;42.622;23.328;2023-07-20T12:33:53;12.55;;;9.45;;
6197;SDS011;3132;42.622;23.328;2023-07-20T12:36:21;10.88;;;8.70;;
6197;SDS011;3132;42.622;23.328;2023-07-20T12:38:47;11.63;;;9.38;;
6197;SDS011;3132;42.622;23.328;2023-07-20T12:41:12;10.18;;;8.38;;
6197;SDS011;3132;42.622;23.328;2023-07-20T12:43:39;9.13;;;7.80;;
6197;SDS011;3132;42.622;23.328;2023-07-20T12:46:07;10.95;;;8.35;;
6197;SDS011;3132;42.622;23.328;2023-07-20T12:48:33;8.90;;;7.45;;
6197;SDS011;3132;42.622;23.328;2023-07-20T12:50:59;16.00;;;8.38;;
6197;SDS011;3132;42.622;23.328;2023-07-20T12:53:24;8.88;;;8.05;;
6197;SDS011;3132;42.622;23.328;2023-07-20T12:55:50;13.05;;;8.55;;
6197;SDS011;3132;42.622;23.328;2023-07-20T12:58:15;11.40;;;7.55;;
6197;SDS011;3132;42.622;23.328;2023-07-20T13:00:40;7.90;;;7.20;;
6197;SDS011;3132;42.622;23.328;2023-07-20T13:03:06;10.27;;;7.68;;
6197;SDS011;3132;42.622;23.328;2023-07-20T13:05:33;8.43;;;7.57;;
6197;SDS011;3132;42.622;23.328;2023-07-20T13:07:59;10.27;;;7.38;;
6197;SDS011;3132;42.622;23.328;2023-07-20T13:10:25;8.65;;;7.60;;
6197;SDS011;3132;42.622;23.328;2023-07-20T13:12:50;15.05;;;8.85;;
6197;SDS011;3132;42.622;23.328;2023-07-20T13:15:16;8.90;;;7.55;;
6197;SDS011;3132;42.622;23.328;2023-07-20T13:17:42;11.80;;;7.82;;
6197;SDS011;3132;42.622;23.328;2023-07-20T13:20:08;9.00;;;7.38;;
6197;SDS011;3132;42.622;23.328;2023-07-20T13:22:36;8.30;;;7.45;;
6197;SDS011;3132;42.622;23.328;2023-07-20T13:25:02;8.35;;;7.30;;
6197;SDS011;3132;42.622;23.328;2023-07-20T13:27:28;10.75;;;7.88;;
6197;SDS011;3132;42.622;23.328;2023-07-20T13:29:53;11.68;;;7.30;;
6197;SDS011;3132;42.622;23.328;2023-07-20T13:32:19;9.18;;;7.53;;
6197;SDS011;3132;42.622;23.328;2023-07-20T13:34:44;10.75;;;7.60;;
6197;SDS011;3132;42.622;23.328;2023-07-20T13:37:10;10.75;;;8.07;;
6197;SDS011;3132;42.622;23.328;2023-07-20T13:39:36;10.15;;;7.85;;
6197;SDS011;3132;42.622;23.328;2023-07-20T13:42:02;7.97;;;7.22;;
6197;SDS011;3132;42.622;23.328;2023-07-20T13:44:30;14.77;;;7.80;;
6197;SDS011;3132;42.622;23.328;2023-07-20T13:46:56;11.75;;;7.20;;
6197;SDS011;3132;42.622;23.328;2023-07-20T13:49:21;9.48;;;7.40;;
6197;SDS011;3132;42.622;23.328;2023-07-20T13:51:46;10.27;;;8.23;;
6197;SDS011;3132;42.622;23.328;2023-07-20T13:54:12;12.73;;;7.20;;
6197;SDS011;3132;42.622;23.328;2023-07-20T13:56:37;8.30;;;7.50;;
6197;SDS011;3132;42.622;23.328;2023-07-20T13:59:03;11.30;;;7.88;;
6197;SDS011;3132;42.622;23.328;2023-07-20T14:01:28;18.10;;;7.15;;
6197;SDS011;3132;42.622;23.328;2023-07-20T14:03:55;10.63;;;7.28;;
6197;SDS011;3132;42.622;23.328;2023-07-20T14:06:21;8.35;;;7.25;;
6197;SDS011;3132;42.622;23.328;2023-07-20T14:08:47;7.55;;;6.88;;
6197;SDS011;3132;42.622;23.328;2023-07-20T14:11:13;13.50;;;7.57;;
6197;SDS011;3132;42.622;23.328;2023-07-20T14:13:39;8.27;;;7.43;;
6197;SDS011;3132;42.622;23.328;2023-07-20T14:16:05;8.43;;;7.55;;
6197;SDS011;3132;42.622;23.328;2023-07-20T14:18:30;8.00;;;7.05;;
6197;SDS011;3132;42.622;23.328;2023-07-20T14:20:55;13.88;;;7.10;;
6197;SDS011;3132;42.622;23.328;2023-07-20T14:23:21;10.43;;;7.43;;
6197;SDS011;3132;42.622;23.328;2023-07-20T14:25:47;8.43;;;7.72;;
6197;SDS011;3132;42.622;23.328;2023-07-20T14:28:13;7.93;;;6.97;;
6197;SDS011;3132;42.622;23.328;2023-07-20T14:30:38;8.30;;;7.25;;
6197;SDS011;3132;42.622;23.328;2023-07-20T14:33:04;7.88;;;7.07;;
6197;SDS011;3132;42.622;23.328;2023-07-20T14:35:29;11.73;;;7.47;;
6197;SDS011;3132;42.622;23.328;2023-07-20T14:37:55;14.77;;;7.53;;
6197;SDS011;3132;42.622;23.328;2023-07-20T14:40:20;12.15;;;7.15;;
6197;SDS011;3132;42.622;23.328;2023-07-20T14:42:45;10.85;;;7.55;;
6197;SDS011;3132;42.622;23.328;2023-07-20T14:45:11;10.25;;;7.22;;
6197;SDS011;3132;42.622;23.328;2023-07-20T14:47:36;9.25;;;6.93;;
6197;SDS011;3132;42.622;23.328;2023-07-20T14:50:02;7.70;;;7.03;;
6197;SDS011;3132;42.622;23.328;2023-07-20T14:52:28;13.27;;;7.40;;
6197;SDS011;3132;42.622;23.328;2023-07-20T14:54:53;12.40;;;7.45;;
6197;SDS011;3132;42.622;23.328;2023-07-20T14:57:19;11.75;;;7.63;;
6197;SDS011;3132;42.622;23.328;2023-07-20T14:59:46;9.73;;;8.32;;
6197;SDS011;3132;42.622;23.328;2023-07-20T15:02:12;11.60;;;8.73;;
6197;SDS011;3132;42.622;23.328;2023-07-20T15:04:45;12.52;;;7.68;;
6197;SDS011;3132;42.622;23.328;2023-07-20T15:07:11;10.65;;;7.18;;
6197;SDS011;3132;42.622;23.328;2023-07-20T15:09:37;7.70;;;6.88;;